Terminal Aerodrome Forecast
Issued by NWS Pueblo, CO

Home | Current Version | Previous Version | Text Only | Print | Product List | Glossary On
Versions: 1 2 3 4 5 6 7 8 9 10 11 12 13 14 15 16 17 18 19 20 21 22 23 24 25 26 27 28 29 30
000
FTUS45 KPUB 022324
TAFALS
TAF
KALS 022324Z 0300/0324 10012KT P6SM VCTS FEW060 BKN100CB
      TEMPO 0300/0303 -TSRA BKN060CB
     FM030300 12008KT P6SM VCSH FEW020 BKN050
     FM030800 VRB04KT P6SM FEW050 BKN080
     FM032000 24012KT P6SM VCTS SCT060CB BKN100=

USA.gov is the U.S. government's official web portal to all federal, state and local government web resources and services.